sensor_id;sensor_type;location;lat;lon;timestamp;P1;durP1;ratioP1;P2;durP2;ratioP2
27985;SDS011;15453;53.692;10.168;2022-08-21T00:02:23;3.58;;;1.73;;
27985;SDS011;15453;53.692;10.168;2022-08-21T00:04:50;3.35;;;1.33;;
27985;SDS011;15453;53.692;10.168;2022-08-21T00:07:17;2.35;;;1.42;;
27985;SDS011;15453;53.692;10.168;2022-08-21T00:09:43;3.78;;;1.55;;
27985;SDS011;15453;53.692;10.168;2022-08-21T00:12:08;2.75;;;1.67;;
27985;SDS011;15453;53.692;10.168;2022-08-21T00:14:34;2.75;;;1.40;;
27985;SDS011;15453;53.692;10.168;2022-08-21T00:17:00;3.97;;;1.77;;
27985;SDS011;15453;53.692;10.168;2022-08-21T00:19:26;3.25;;;1.60;;
27985;SDS011;15453;53.692;10.168;2022-08-21T00:21:53;3.95;;;1.50;;
27985;SDS011;15453;53.692;10.168;2022-08-21T00:24:19;2.58;;;1.30;;
27985;SDS011;15453;53.692;10.168;2022-08-21T00:26:45;4.20;;;1.42;;
27985;SDS011;15453;53.692;10.168;2022-08-21T00:29:11;4.28;;;1.95;;
27985;SDS011;15453;53.692;10.168;2022-08-21T00:31:37;5.05;;;1.98;;
27985;SDS011;15453;53.692;10.168;2022-08-21T00:34:02;3.33;;;1.60;;
27985;SDS011;15453;53.692;10.168;2022-08-21T00:36:28;3.85;;;2.00;;
27985;SDS011;15453;53.692;10.168;2022-08-21T00:38:54;3.20;;;1.70;;
27985;SDS011;15453;53.692;10.168;2022-08-21T00:41:20;3.35;;;1.65;;
27985;SDS011;15453;53.692;10.168;2022-08-21T00:43:45;2.90;;;1.45;;
27985;SDS011;15453;53.692;10.168;2022-08-21T00:46:11;2.38;;;1.50;;
27985;SDS011;15453;53.692;10.168;2022-08-21T00:48:36;4.25;;;1.60;;
27985;SDS011;15453;53.692;10.168;2022-08-21T00:51:06;4.18;;;1.60;;
27985;SDS011;15453;53.692;10.168;2022-08-21T00:53:36;2.05;;;1.30;;
27985;SDS011;15453;53.692;10.168;2022-08-21T00:56:04;2.00;;;1.35;;
27985;SDS011;15453;53.692;10.168;2022-08-21T00:58:31;2.53;;;1.50;;
27985;SDS011;15453;53.692;10.168;2022-08-21T01:01:01;5.53;;;1.52;;
27985;SDS011;15453;53.692;10.168;2022-08-21T01:03:27;3.05;;;1.50;;
27985;SDS011;15453;53.692;10.168;2022-08-21T01:05:53;3.65;;;1.67;;
27985;SDS011;15453;53.692;10.168;2022-08-21T01:08:19;3.00;;;1.50;;
27985;SDS011;15453;53.692;10.168;2022-08-21T01:10:45;3.17;;;1.38;;
27985;SDS011;15453;53.692;10.168;2022-08-21T01:13:12;3.10;;;1.50;;
27985;SDS011;15453;53.692;10.168;2022-08-21T01:15:42;2.72;;;1.35;;
27985;SDS011;15453;53.692;10.168;2022-08-21T01:18:09;2.22;;;1.25;;
27985;SDS011;15453;53.692;10.168;2022-08-21T01:20:36;2.97;;;1.42;;
27985;SDS011;15453;53.692;10.168;2022-08-21T01:23:03;2.45;;;1.38;;
27985;SDS011;15453;53.692;10.168;2022-08-21T01:25:30;3.67;;;1.58;;
27985;SDS011;15453;53.692;10.168;2022-08-21T01:27:57;4.40;;;1.40;;
27985;SDS011;15453;53.692;10.168;2022-08-21T01:30:34;2.83;;;1.52;;
27985;SDS011;15453;53.692;10.168;2022-08-21T01:33:00;10.10;;;1.40;;
27985;SDS011;15453;53.692;10.168;2022-08-21T01:35:25;2.15;;;1.25;;
27985;SDS011;15453;53.692;10.168;2022-08-21T01:37:51;2.47;;;1.40;;
27985;SDS011;15453;53.692;10.168;2022-08-21T01:40:17;4.20;;;1.60;;
27985;SDS011;15453;53.692;10.168;2022-08-21T01:42:43;1.95;;;1.35;;
27985;SDS011;15453;53.692;10.168;2022-08-21T01:45:10;2.40;;;1.25;;
27985;SDS011;15453;53.692;10.168;2022-08-21T01:47:36;3.08;;;1.40;;
27985;SDS011;15453;53.692;10.168;2022-08-21T01:50:06;2.38;;;1.20;;
27985;SDS011;15453;53.692;10.168;2022-08-21T01:52:35;2.30;;;1.30;;
27985;SDS011;15453;53.692;10.168;2022-08-21T01:55:00;2.33;;;1.45;;
27985;SDS011;15453;53.692;10.168;2022-08-21T01:57:26;1.95;;;1.30;;
27985;SDS011;15453;53.692;10.168;2022-08-21T01:59:51;2.17;;;1.42;;
27985;SDS011;15453;53.692;10.168;2022-08-21T02:02:17;2.45;;;1.27;;
27985;SDS011;15453;53.692;10.168;2022-08-21T02:04:42;4.50;;;1.23;;
27985;SDS011;15453;53.692;10.168;2022-08-21T02:07:07;1.90;;;1.20;;
27985;SDS011;15453;53.692;10.168;2022-08-21T02:09:32;2.50;;;1.30;;
27985;SDS011;15453;53.692;10.168;2022-08-21T02:11:58;2.67;;;1.30;;
27985;SDS011;15453;53.692;10.168;2022-08-21T02:14:24;3.65;;;1.27;;
27985;SDS011;15453;53.692;10.168;2022-08-21T02:16:49;3.60;;;1.25;;
27985;SDS011;15453;53.692;10.168;2022-08-21T02:19:15;2.40;;;1.40;;
27985;SDS011;15453;53.692;10.168;2022-08-21T02:21:41;2.03;;;1.33;;
27985;SDS011;15453;53.692;10.168;2022-08-21T02:24:07;2.63;;;1.48;;
27985;SDS011;15453;53.692;10.168;2022-08-21T02:26:33;3.67;;;1.42;;
27985;SDS011;15453;53.692;10.168;2022-08-21T02:28:58;2.38;;;1.63;;
27985;SDS011;15453;53.692;10.168;2022-08-21T02:31:24;4.32;;;1.90;;
27985;SDS011;15453;53.692;10.168;2022-08-21T02:33:50;3.90;;;1.55;;
27985;SDS011;15453;53.692;10.168;2022-08-21T02:36:15;3.90;;;1.63;;
27985;SDS011;15453;53.692;10.168;2022-08-21T02:38:41;2.78;;;1.73;;
27985;SDS011;15453;53.692;10.168;2022-08-21T02:41:10;3.60;;;1.67;;
27985;SDS011;15453;53.692;10.168;2022-08-21T02:43:37;2.78;;;1.58;;
27985;SDS011;15453;53.692;10.168;2022-08-21T02:46:03;2.17;;;1.50;;
27985;SDS011;15453;53.692;10.168;2022-08-21T02:48:31;2.83;;;1.70;;
27985;SDS011;15453;53.692;10.168;2022-08-21T02:50:59;3.72;;;1.60;;
27985;SDS011;15453;53.692;10.168;2022-08-21T02:53:27;2.63;;;1.50;;
27985;SDS011;15453;53.692;10.168;2022-08-21T02:55:53;6.05;;;1.80;;
27985;SDS011;15453;53.692;10.168;2022-08-21T02:58:21;2.65;;;1.50;;
27985;SDS011;15453;53.692;10.168;2022-08-21T03:00:49;3.10;;;1.52;;
27985;SDS011;15453;53.692;10.168;2022-08-21T03:03:16;2.45;;;1.50;;
27985;SDS011;15453;53.692;10.168;2022-08-21T03:05:41;3.13;;;1.30;;
27985;SDS011;15453;53.692;10.168;2022-08-21T03:08:08;2.45;;;1.42;;
27985;SDS011;15453;53.692;10.168;2022-08-21T03:10:36;2.72;;;1.17;;
27985;SDS011;15453;53.692;10.168;2022-08-21T03:13:07;3.08;;;1.55;;
27985;SDS011;15453;53.692;10.168;2022-08-21T03:15:33;2.53;;;1.50;;
27985;SDS011;15453;53.692;10.168;2022-08-21T03:17:59;2.65;;;1.33;;
27985;SDS011;15453;53.692;10.168;2022-08-21T03:20:28;2.63;;;1.40;;
27985;SDS011;15453;53.692;10.168;2022-08-21T03:22:55;2.75;;;1.48;;
27985;SDS011;15453;53.692;10.168;2022-08-21T03:25:22;2.38;;;1.73;;
27985;SDS011;15453;53.692;10.168;2022-08-21T03:27:48;1.65;;;1.20;;
27985;SDS011;15453;53.692;10.168;2022-08-21T03:30:14;4.50;;;1.55;;
27985;SDS011;15453;53.692;10.168;2022-08-21T03:32:40;2.70;;;1.25;;
27985;SDS011;15453;53.692;10.168;2022-08-21T03:35:06;2.33;;;1.23;;
27985;SDS011;15453;53.692;10.168;2022-08-21T03:37:33;2.20;;;1.35;;
27985;SDS011;15453;53.692;10.168;2022-08-21T03:39:58;2.67;;;1.17;;
27985;SDS011;15453;53.692;10.168;2022-08-21T03:42:24;2.38;;;1.42;;
27985;SDS011;15453;53.692;10.168;2022-08-21T03:44:49;2.28;;;1.33;;
27985;SDS011;15453;53.692;10.168;2022-08-21T03:47:15;1.98;;;1.20;;
27985;SDS011;15453;53.692;10.168;2022-08-21T03:49:40;3.00;;;1.77;;
27985;SDS011;15453;53.692;10.168;2022-08-21T03:52:06;3.95;;;1.50;;
27985;SDS011;15453;53.692;10.168;2022-08-21T03:54:31;5.30;;;1.30;;
27985;SDS011;15453;53.692;10.168;2022-08-21T03:56:57;3.50;;;1.50;;
27985;SDS011;15453;53.692;10.168;2022-08-21T03:59:22;2.05;;;1.40;;
27985;SDS011;15453;53.692;10.168;2022-08-21T04:01:58;2.83;;;1.63;;
27985;SDS011;15453;53.692;10.168;2022-08-21T04:04:26;1.95;;;1.20;;
27985;SDS011;15453;53.692;10.168;2022-08-21T04:06:52;2.38;;;1.15;;
27985;SDS011;15453;53.692;10.168;2022-08-21T04:09:18;2.50;;;1.20;;
27985;SDS011;15453;53.692;10.168;2022-08-21T04:11:44;2.25;;;1.02;;
27985;SDS011;15453;53.692;10.168;2022-08-21T04:14:11;2.67;;;1.30;;
27985;SDS011;15453;53.692;10.168;2022-08-21T04:16:36;2.83;;;1.30;;
27985;SDS011;15453;53.692;10.168;2022-08-21T04:19:02;3.97;;;1.27;;
27985;SDS011;15453;53.692;10.168;2022-08-21T04:21:27;3.25;;;1.27;;
27985;SDS011;15453;53.692;10.168;2022-08-21T04:23:55;2.53;;;1.50;;
27985;SDS011;15453;53.692;10.168;2022-08-21T04:26:21;5.15;;;1.58;;
27985;SDS011;15453;53.692;10.168;2022-08-21T04:28:47;5.18;;;1.40;;
27985;SDS011;15453;53.692;10.168;2022-08-21T04:31:12;10.50;;;1.40;;
27985;SDS011;15453;53.692;10.168;2022-08-21T04:33:38;2.22;;;1.15;;
27985;SDS011;15453;53.692;10.168;2022-08-21T04:36:03;2.00;;;1.20;;
27985;SDS011;15453;53.692;10.168;2022-08-21T04:38:29;3.80;;;1.33;;
27985;SDS011;15453;53.692;10.168;2022-08-21T04:40:56;1.77;;;1.10;;
27985;SDS011;15453;53.692;10.168;2022-08-21T04:43:21;2.63;;;1.35;;
27985;SDS011;15453;53.692;10.168;2022-08-21T04:45:48;3.15;;;1.17;;
27985;SDS011;15453;53.692;10.168;2022-08-21T04:48:16;2.15;;;1.27;;
27985;SDS011;15453;53.692;10.168;2022-08-21T04:53:28;1.77;;;1.20;;
27985;SDS011;15453;53.692;10.168;2022-08-21T04:55:56;2.78;;;1.20;;
27985;SDS011;15453;53.692;10.168;2022-08-21T04:58:29;2.22;;;1.20;;
27985;SDS011;15453;53.692;10.168;2022-08-21T05:00:56;3.15;;;1.15;;
27985;SDS011;15453;53.692;10.168;2022-08-21T05:03:25;2.83;;;1.48;;
27985;SDS011;15453;53.692;10.168;2022-08-21T05:05:50;2.42;;;1.40;;
27985;SDS011;15453;53.692;10.168;2022-08-21T05:08:17;1.92;;;1.40;;
27985;SDS011;15453;53.692;10.168;2022-08-21T05:10:46;3.00;;;1.42;;
27985;SDS011;15453;53.692;10.168;2022-08-21T05:13:12;2.97;;;1.38;;
27985;SDS011;15453;53.692;10.168;2022-08-21T05:15:38;2.47;;;1.17;;
27985;SDS011;15453;53.692;10.168;2022-08-21T05:18:04;2.15;;;0.95;;
27985;SDS011;15453;53.692;10.168;2022-08-21T05:20:29;1.98;;;1.10;;
27985;SDS011;15453;53.692;10.168;2022-08-21T05:22:55;4.45;;;1.30;;
27985;SDS011;15453;53.692;10.168;2022-08-21T05:25:21;3.83;;;1.10;;
27985;SDS011;15453;53.692;10.168;2022-08-21T05:27:46;1.65;;;1.10;;
27985;SDS011;15453;53.692;10.168;2022-08-21T05:30:11;1.80;;;1.35;;
27985;SDS011;15453;53.692;10.168;2022-08-21T05:32:38;3.05;;;1.40;;
27985;SDS011;15453;53.692;10.168;2022-08-21T05:35:04;5.40;;;1.27;;
27985;SDS011;15453;53.692;10.168;2022-08-21T05:37:30;3.05;;;1.27;;
27985;SDS011;15453;53.692;10.168;2022-08-21T05:39:55;2.30;;;1.27;;
27985;SDS011;15453;53.692;10.168;2022-08-21T05:42:20;2.63;;;1.30;;
27985;SDS011;15453;53.692;10.168;2022-08-21T05:44:46;2.75;;;1.38;;
27985;SDS011;15453;53.692;10.168;2022-08-21T05:47:11;3.88;;;1.40;;
27985;SDS011;15453;53.692;10.168;2022-08-21T05:49:36;2.30;;;1.45;;
27985;SDS011;15453;53.692;10.168;2022-08-21T05:52:02;2.95;;;1.15;;
27985;SDS011;15453;53.692;10.168;2022-08-21T05:54:28;4.32;;;1.70;;
27985;SDS011;15453;53.692;10.168;2022-08-21T05:56:54;2.63;;;1.50;;
27985;SDS011;15453;53.692;10.168;2022-08-21T05:59:19;4.68;;;1.23;;
27985;SDS011;15453;53.692;10.168;2022-08-21T06:01:45;3.20;;;1.50;;
27985;SDS011;15453;53.692;10.168;2022-08-21T06:04:10;3.65;;;1.50;;
27985;SDS011;15453;53.692;10.168;2022-08-21T06:06:36;3.08;;;1.42;;
27985;SDS011;15453;53.692;10.168;2022-08-21T06:09:02;2.88;;;1.30;;
27985;SDS011;15453;53.692;10.168;2022-08-21T06:11:28;3.17;;;1.58;;
27985;SDS011;15453;53.692;10.168;2022-08-21T06:13:54;2.47;;;1.55;;
27985;SDS011;15453;53.692;10.168;2022-08-21T06:16:19;4.80;;;1.58;;
27985;SDS011;15453;53.692;10.168;2022-08-21T06:18:44;4.97;;;2.42;;
27985;SDS011;15453;53.692;10.168;2022-08-21T06:21:10;4.63;;;1.98;;
27985;SDS011;15453;53.692;10.168;2022-08-21T06:23:36;4.38;;;2.20;;
27985;SDS011;15453;53.692;10.168;2022-08-21T06:26:03;5.15;;;2.42;;
27985;SDS011;15453;53.692;10.168;2022-08-21T06:28:30;4.40;;;1.90;;
27985;SDS011;15453;53.692;10.168;2022-08-21T06:30:55;4.93;;;2.13;;
27985;SDS011;15453;53.692;10.168;2022-08-21T06:33:21;5.03;;;1.83;;
27985;SDS011;15453;53.692;10.168;2022-08-21T06:35:46;4.00;;;2.20;;
27985;SDS011;15453;53.692;10.168;2022-08-21T06:38:11;4.55;;;2.03;;
27985;SDS011;15453;53.692;10.168;2022-08-21T06:40:37;4.95;;;2.05;;
27985;SDS011;15453;53.692;10.168;2022-08-21T06:43:06;4.45;;;2.13;;
27985;SDS011;15453;53.692;10.168;2022-08-21T06:45:39;6.20;;;2.40;;
27985;SDS011;15453;53.692;10.168;2022-08-21T06:48:05;5.47;;;2.13;;
27985;SDS011;15453;53.692;10.168;2022-08-21T06:50:32;5.18;;;2.20;;
27985;SDS011;15453;53.692;10.168;2022-08-21T06:52:59;3.65;;;1.83;;
27985;SDS011;15453;53.692;10.168;2022-08-21T06:55:38;3.70;;;1.98;;
27985;SDS011;15453;53.692;10.168;2022-08-21T06:58:04;3.88;;;1.73;;
27985;SDS011;15453;53.692;10.168;2022-08-21T07:00:30;5.55;;;1.98;;
27985;SDS011;15453;53.692;10.168;2022-08-21T07:02:56;5.20;;;1.98;;
27985;SDS011;15453;53.692;10.168;2022-08-21T07:05:24;4.78;;;1.73;;
27985;SDS011;15453;53.692;10.168;2022-08-21T07:07:51;3.47;;;1.70;;
27985;SDS011;15453;53.692;10.168;2022-08-21T07:10:16;4.80;;;1.80;;
27985;SDS011;15453;53.692;10.168;2022-08-21T07:12:42;3.75;;;1.42;;
27985;SDS011;15453;53.692;10.168;2022-08-21T07:15:07;3.45;;;1.67;;
27985;SDS011;15453;53.692;10.168;2022-08-21T07:17:33;4.22;;;1.83;;
27985;SDS011;15453;53.692;10.168;2022-08-21T07:19:58;3.70;;;1.50;;
27985;SDS011;15453;53.692;10.168;2022-08-21T07:22:23;4.93;;;1.80;;
27985;SDS011;15453;53.692;10.168;2022-08-21T07:24:49;3.30;;;1.50;;
27985;SDS011;15453;53.692;10.168;2022-08-21T07:27:14;3.28;;;1.40;;
27985;SDS011;15453;53.692;10.168;2022-08-21T07:29:40;3.15;;;1.27;;
27985;SDS011;15453;53.692;10.168;2022-08-21T07:32:05;4.97;;;1.50;;
27985;SDS011;15453;53.692;10.168;2022-08-21T07:34:31;4.78;;;2.00;;
27985;SDS011;15453;53.692;10.168;2022-08-21T07:36:57;3.88;;;1.48;;
27985;SDS011;15453;53.692;10.168;2022-08-21T07:39:22;4.47;;;1.88;;
27985;SDS011;15453;53.692;10.168;2022-08-21T07:41:48;3.78;;;1.50;;
27985;SDS011;15453;53.692;10.168;2022-08-21T07:44:13;2.72;;;1.27;;
27985;SDS011;15453;53.692;10.168;2022-08-21T07:46:38;2.58;;;1.40;;
27985;SDS011;15453;53.692;10.168;2022-08-21T07:49:04;3.67;;;1.52;;
27985;SDS011;15453;53.692;10.168;2022-08-21T07:51:29;3.72;;;1.60;;
27985;SDS011;15453;53.692;10.168;2022-08-21T07:53:56;2.97;;;1.50;;
27985;SDS011;15453;53.692;10.168;2022-08-21T07:56:24;3.50;;;1.70;;
27985;SDS011;15453;53.692;10.168;2022-08-21T07:58:49;12.90;;;7.85;;
27985;SDS011;15453;53.692;10.168;2022-08-21T08:01:15;15.02;;;7.38;;
27985;SDS011;15453;53.692;10.168;2022-08-21T08:03:41;11.27;;;5.60;;
27985;SDS011;15453;53.692;10.168;2022-08-21T08:06:06;7.75;;;3.10;;
27985;SDS011;15453;53.692;10.168;2022-08-21T08:08:36;4.70;;;1.80;;
27985;SDS011;15453;53.692;10.168;2022-08-21T08:11:01;3.00;;;1.55;;
27985;SDS011;15453;53.692;10.168;2022-08-21T08:13:26;3.22;;;1.60;;
27985;SDS011;15453;53.692;10.168;2022-08-21T08:15:52;4.63;;;1.90;;
27985;SDS011;15453;53.692;10.168;2022-08-21T08:18:17;5.35;;;1.90;;
27985;SDS011;15453;53.692;10.168;2022-08-21T08:20:43;4.38;;;1.92;;
27985;SDS011;15453;53.692;10.168;2022-08-21T08:23:11;6.82;;;1.67;;
27985;SDS011;15453;53.692;10.168;2022-08-21T08:25:38;4.20;;;1.70;;
27985;SDS011;15453;53.692;10.168;2022-08-21T08:28:04;4.90;;;1.80;;
27985;SDS011;15453;53.692;10.168;2022-08-21T08:30:30;4.95;;;1.80;;
27985;SDS011;15453;53.692;10.168;2022-08-21T08:32:55;6.45;;;1.80;;
27985;SDS011;15453;53.692;10.168;2022-08-21T08:35:22;5.20;;;1.63;;
27985;SDS011;15453;53.692;10.168;2022-08-21T08:37:48;3.60;;;1.55;;
27985;SDS011;15453;53.692;10.168;2022-08-21T08:40:14;4.00;;;1.60;;
27985;SDS011;15453;53.692;10.168;2022-08-21T08:42:47;5.72;;;1.90;;
27985;SDS011;15453;53.692;10.168;2022-08-21T08:45:16;2.70;;;1.27;;
27985;SDS011;15453;53.692;10.168;2022-08-21T08:47:46;5.72;;;1.38;;
27985;SDS011;15453;53.692;10.168;2022-08-21T08:50:20;3.25;;;1.35;;
27985;SDS011;15453;53.692;10.168;2022-08-21T08:52:49;4.10;;;1.30;;
27985;SDS011;15453;53.692;10.168;2022-08-21T08:55:23;4.93;;;1.80;;
27985;SDS011;15453;53.692;10.168;2022-08-21T08:57:53;4.65;;;1.70;;
27985;SDS011;15453;53.692;10.168;2022-08-21T09:00:20;3.95;;;1.40;;
27985;SDS011;15453;53.692;10.168;2022-08-21T09:02:47;4.95;;;1.50;;
27985;SDS011;15453;53.692;10.168;2022-08-21T09:05:29;6.47;;;2.00;;
27985;SDS011;15453;53.692;10.168;2022-08-21T09:08:28;4.93;;;2.27;;
27985;SDS011;15453;53.692;10.168;2022-08-21T09:13:56;4.93;;;1.48;;
27985;SDS011;15453;53.692;10.168;2022-08-21T09:16:38;6.20;;;1.92;;
27985;SDS011;15453;53.692;10.168;2022-08-21T09:19:29;5.53;;;3.33;;
27985;SDS011;15453;53.692;10.168;2022-08-21T09:22:15;6.47;;;2.92;;
27985;SDS011;15453;53.692;10.168;2022-08-21T09:24:57;8.32;;;2.50;;
27985;SDS011;15453;53.692;10.168;2022-08-21T09:27:35;3.95;;;1.90;;
27985;SDS011;15453;53.692;10.168;2022-08-21T09:30:03;4.28;;;1.98;;
27985;SDS011;15453;53.692;10.168;2022-08-21T09:32:31;5.65;;;1.67;;
27985;SDS011;15453;53.692;10.168;2022-08-21T09:35:00;7.50;;;1.77;;
27985;SDS011;15453;53.692;10.168;2022-08-21T09:37:30;6.90;;;2.00;;
27985;SDS011;15453;53.692;10.168;2022-08-21T09:39:56;6.25;;;1.70;;
27985;SDS011;15453;53.692;10.168;2022-08-21T09:42:27;9.45;;;2.10;;
27985;SDS011;15453;53.692;10.168;2022-08-21T09:45:30;3.72;;;1.50;;
27985;SDS011;15453;53.692;10.168;2022-08-21T09:47:48;4.85;;;2.00;;
27985;SDS011;15453;53.692;10.168;2022-08-21T09:50:17;6.80;;;1.80;;
27985;SDS011;15453;53.692;10.168;2022-08-21T09:52:57;6.55;;;1.63;;
27985;SDS011;15453;53.692;10.168;2022-08-21T09:55:32;4.78;;;1.52;;
27985;SDS011;15453;53.692;10.168;2022-08-21T09:58:29;3.35;;;1.38;;
27985;SDS011;15453;53.692;10.168;2022-08-21T10:00:58;7.45;;;1.65;;
27985;SDS011;15453;53.692;10.168;2022-08-21T10:03:24;3.78;;;1.40;;
27985;SDS011;15453;53.692;10.168;2022-08-21T10:05:55;4.35;;;1.60;;
27985;SDS011;15453;53.692;10.168;2022-08-21T10:08:30;6.93;;;2.80;;
27985;SDS011;15453;53.692;10.168;2022-08-21T10:11:08;7.05;;;2.70;;
27985;SDS011;15453;53.692;10.168;2022-08-21T10:16:10;6.32;;;2.33;;
27985;SDS011;15453;53.692;10.168;2022-08-21T10:24:33;6.22;;;2.10;;
27985;SDS011;15453;53.692;10.168;2022-08-21T10:27:20;6.45;;;1.85;;
27985;SDS011;15453;53.692;10.168;2022-08-21T10:30:14;10.18;;;2.60;;
27985;SDS011;15453;53.692;10.168;2022-08-21T10:35:29;4.65;;;1.75;;
27985;SDS011;15453;53.692;10.168;2022-08-21T10:38:10;6.35;;;2.17;;
27985;SDS011;15453;53.692;10.168;2022-08-21T10:40:58;4.43;;;1.65;;
27985;SDS011;15453;53.692;10.168;2022-08-21T10:48:49;7.68;;;1.65;;
27985;SDS011;15453;53.692;10.168;2022-08-21T10:51:31;4.38;;;2.10;;
27985;SDS011;15453;53.692;10.168;2022-08-21T10:54:17;5.45;;;1.77;;
27985;SDS011;15453;53.692;10.168;2022-08-21T10:56:48;5.13;;;1.83;;
27985;SDS011;15453;53.692;10.168;2022-08-21T11:01:53;6.05;;;1.83;;
27985;SDS011;15453;53.692;10.168;2022-08-21T11:04:25;4.80;;;1.70;;
27985;SDS011;15453;53.692;10.168;2022-08-21T11:07:00;7.07;;;2.20;;
27985;SDS011;15453;53.692;10.168;2022-08-21T11:09:30;6.30;;;1.67;;
27985;SDS011;15453;53.692;10.168;2022-08-21T11:11:57;5.97;;;2.03;;
27985;SDS011;15453;53.692;10.168;2022-08-21T11:14:47;8.25;;;4.28;;
27985;SDS011;15453;53.692;10.168;2022-08-21T11:17:22;6.80;;;3.00;;
27985;SDS011;15453;53.692;10.168;2022-08-21T11:20:06;7.07;;;1.90;;
27985;SDS011;15453;53.692;10.168;2022-08-21T11:27:53;4.93;;;1.60;;
27985;SDS011;15453;53.692;10.168;2022-08-21T11:30:27;5.47;;;1.55;;
27985;SDS011;15453;53.692;10.168;2022-08-21T11:41:52;6.63;;;1.90;;
27985;SDS011;15453;53.692;10.168;2022-08-21T11:44:44;5.82;;;1.60;;
27985;SDS011;15453;53.692;10.168;2022-08-21T11:50:30;3.38;;;1.40;;
27985;SDS011;15453;53.692;10.168;2022-08-21T11:53:01;4.03;;;1.42;;
27985;SDS011;15453;53.692;10.168;2022-08-21T11:55:36;4.65;;;1.75;;
27985;SDS011;15453;53.692;10.168;2022-08-21T11:58:07;4.82;;;1.45;;
27985;SDS011;15453;53.692;10.168;2022-08-21T12:00:46;3.50;;;1.42;;
27985;SDS011;15453;53.692;10.168;2022-08-21T12:03:16;3.05;;;1.30;;
27985;SDS011;15453;53.692;10.168;2022-08-21T12:05:54;5.10;;;1.48;;
27985;SDS011;15453;53.692;10.168;2022-08-21T12:08:31;4.55;;;2.22;;
27985;SDS011;15453;53.692;10.168;2022-08-21T12:11:22;4.35;;;1.60;;
27985;SDS011;15453;53.692;10.168;2022-08-21T12:13:57;3.10;;;1.40;;
27985;SDS011;15453;53.692;10.168;2022-08-21T12:16:39;8.32;;;3.47;;
27985;SDS011;15453;53.692;10.168;2022-08-21T12:19:10;5.85;;;1.95;;
27985;SDS011;15453;53.692;10.168;2022-08-21T12:21:52;2.78;;;1.75;;
27985;SDS011;15453;53.692;10.168;2022-08-21T12:27:18;4.45;;;1.58;;
27985;SDS011;15453;53.692;10.168;2022-08-21T12:30:00;3.97;;;1.55;;
27985;SDS011;15453;53.692;10.168;2022-08-21T12:35:08;3.17;;;1.45;;
27985;SDS011;15453;53.692;10.168;2022-08-21T12:37:40;4.00;;;1.70;;
27985;SDS011;15453;53.692;10.168;2022-08-21T12:40:14;3.08;;;1.50;;
27985;SDS011;15453;53.692;10.168;2022-08-21T12:42:44;3.65;;;2.10;;
27985;SDS011;15453;53.692;10.168;2022-08-21T12:45:17;2.25;;;1.23;;
27985;SDS011;15453;53.692;10.168;2022-08-21T12:50:31;5.97;;;1.90;;
27985;SDS011;15453;53.692;10.168;2022-08-21T12:55:34;4.32;;;1.80;;
27985;SDS011;15453;53.692;10.168;2022-08-21T12:58:00;2.60;;;1.60;;
27985;SDS011;15453;53.692;10.168;2022-08-21T13:00:26;3.85;;;1.40;;
27985;SDS011;15453;53.692;10.168;2022-08-21T13:02:54;4.97;;;1.67;;
27985;SDS011;15453;53.692;10.168;2022-08-21T13:05:27;4.93;;;1.58;;
27985;SDS011;15453;53.692;10.168;2022-08-21T13:07:58;3.65;;;1.60;;
27985;SDS011;15453;53.692;10.168;2022-08-21T13:10:29;3.47;;;1.35;;
27985;SDS011;15453;53.692;10.168;2022-08-21T13:12:57;4.30;;;1.52;;
27985;SDS011;15453;53.692;10.168;2022-08-21T13:15:26;4.03;;;1.83;;
27985;SDS011;15453;53.692;10.168;2022-08-21T13:17:54;4.43;;;2.22;;
27985;SDS011;15453;53.692;10.168;2022-08-21T13:20:27;5.03;;;2.10;;
27985;SDS011;15453;53.692;10.168;2022-08-21T13:22:54;4.78;;;1.52;;
27985;SDS011;15453;53.692;10.168;2022-08-21T13:25:21;3.92;;;2.60;;
27985;SDS011;15453;53.692;10.168;2022-08-21T13:28:03;4.03;;;2.00;;
27985;SDS011;15453;53.692;10.168;2022-08-21T13:30:33;3.45;;;1.50;;
27985;SDS011;15453;53.692;10.168;2022-08-21T13:33:00;3.00;;;1.40;;
27985;SDS011;15453;53.692;10.168;2022-08-21T13:35:30;2.95;;;1.23;;
27985;SDS011;15453;53.692;10.168;2022-08-21T13:38:16;1.98;;;1.50;;
27985;SDS011;15453;53.692;10.168;2022-08-21T13:41:07;2.83;;;1.20;;
27985;SDS011;15453;53.692;10.168;2022-08-21T13:43:35;3.67;;;1.20;;
27985;SDS011;15453;53.692;10.168;2022-08-21T13:46:02;2.85;;;1.13;;
27985;SDS011;15453;53.692;10.168;2022-08-21T13:48:34;2.33;;;1.25;;
27985;SDS011;15453;53.692;10.168;2022-08-21T13:51:02;2.03;;;0.90;;
27985;SDS011;15453;53.692;10.168;2022-08-21T13:53:29;3.88;;;1.08;;
27985;SDS011;15453;53.692;10.168;2022-08-21T13:55:58;2.75;;;1.17;;
27985;SDS011;15453;53.692;10.168;2022-08-21T13:58:31;3.08;;;1.40;;
27985;SDS011;15453;53.692;10.168;2022-08-21T14:04:23;1.70;;;1.15;;
27985;SDS011;15453;53.692;10.168;2022-08-21T14:06:52;3.17;;;1.33;;
27985;SDS011;15453;53.692;10.168;2022-08-21T14:09:24;3.25;;;1.40;;
27985;SDS011;15453;53.692;10.168;2022-08-21T14:11:55;2.00;;;1.00;;
27985;SDS011;15453;53.692;10.168;2022-08-21T14:14:23;2.83;;;1.15;;
27985;SDS011;15453;53.692;10.168;2022-08-21T14:16:56;4.30;;;1.27;;
27985;SDS011;15453;53.692;10.168;2022-08-21T14:19:25;4.10;;;1.58;;
27985;SDS011;15453;53.692;10.168;2022-08-21T14:21:52;2.53;;;1.20;;
27985;SDS011;15453;53.692;10.168;2022-08-21T14:29:19;2.92;;;1.33;;
27985;SDS011;15453;53.692;10.168;2022-08-21T14:31:51;1.63;;;1.15;;
27985;SDS011;15453;53.692;10.168;2022-08-21T14:34:19;3.05;;;1.15;;
27985;SDS011;15453;53.692;10.168;2022-08-21T14:36:46;3.03;;;1.15;;
27985;SDS011;15453;53.692;10.168;2022-08-21T14:39:11;1.88;;;1.30;;
27985;SDS011;15453;53.692;10.168;2022-08-21T14:41:37;4.72;;;3.30;;
27985;SDS011;15453;53.692;10.168;2022-08-21T14:44:02;2.58;;;1.50;;
27985;SDS011;15453;53.692;10.168;2022-08-21T14:46:29;3.20;;;1.20;;
27985;SDS011;15453;53.692;10.168;2022-08-21T14:48:56;2.85;;;1.08;;
27985;SDS011;15453;53.692;10.168;2022-08-21T14:51:22;4.32;;;1.23;;
27985;SDS011;15453;53.692;10.168;2022-08-21T14:53:47;2.53;;;0.90;;
27985;SDS011;15453;53.692;10.168;2022-08-21T14:56:13;2.92;;;1.10;;
27985;SDS011;15453;53.692;10.168;2022-08-21T14:58:41;1.60;;;1.00;;
27985;SDS011;15453;53.692;10.168;2022-08-21T15:01:09;3.57;;;1.10;;
27985;SDS011;15453;53.692;10.168;2022-08-21T15:03:36;2.50;;;1.20;;
27985;SDS011;15453;53.692;10.168;2022-08-21T15:06:03;2.92;;;1.05;;
27985;SDS011;15453;53.692;10.168;2022-08-21T15:08:29;2.50;;;1.10;;
27985;SDS011;15453;53.692;10.168;2022-08-21T15:10:54;2.78;;;1.08;;
27985;SDS011;15453;53.692;10.168;2022-08-21T15:13:21;2.78;;;1.40;;
27985;SDS011;15453;53.692;10.168;2022-08-21T15:15:47;2.03;;;1.00;;
27985;SDS011;15453;53.692;10.168;2022-08-21T15:18:15;2.35;;;1.10;;
27985;SDS011;15453;53.692;10.168;2022-08-21T15:20:41;1.55;;;0.95;;
27985;SDS011;15453;53.692;10.168;2022-08-21T15:23:07;5.18;;;1.50;;
27985;SDS011;15453;53.692;10.168;2022-08-21T15:25:34;3.13;;;1.15;;
27985;SDS011;15453;53.692;10.168;2022-08-21T15:28:00;4.18;;;1.40;;
27985;SDS011;15453;53.692;10.168;2022-08-21T15:30:27;2.47;;;1.08;;
27985;SDS011;15453;53.692;10.168;2022-08-21T15:32:53;2.05;;;1.00;;
27985;SDS011;15453;53.692;10.168;2022-08-21T15:35:19;7.33;;;0.90;;
27985;SDS011;15453;53.692;10.168;2022-08-21T15:37:44;2.43;;;1.47;;
27985;SDS011;15453;53.692;10.168;2022-08-21T15:40:10;2.00;;;1.15;;
27985;SDS011;15453;53.692;10.168;2022-08-21T15:42:37;2.67;;;1.10;;
27985;SDS011;15453;53.692;10.168;2022-08-21T15:45:04;5.32;;;1.50;;